createdAt,value
2022-10-19T00:00:46.870Z,0
2022-10-19T00:02:53.753Z,0
2022-10-19T00:04:58.882Z,0
2022-10-19T00:06:01.759Z,0
2022-10-19T00:08:07.341Z,0
2022-10-19T00:09:09.578Z,0
2022-10-19T00:10:12.684Z,0
2022-10-19T00:11:15.122Z,0
2022-10-19T00:13:21.007Z,0
2022-10-19T00:14:23.815Z,0
2022-10-19T00:15:27.251Z,0
2022-10-19T00:16:30.649Z,0
2022-10-19T00:18:39.387Z,0
2022-10-19T00:20:45.167Z,0
2022-10-19T00:21:48.402Z,0
2022-10-19T00:23:54.537Z,0
2022-10-19T00:26:00.948Z,0
2022-10-19T00:28:08.072Z,0
2022-10-19T00:29:12.054Z,0
2022-10-19T00:31:18.304Z,0
2022-10-19T00:33:25.558Z,0
2022-10-19T00:35:32.162Z,0
2022-10-19T00:36:34.868Z,0
2022-10-19T00:38:41.274Z,0
2022-10-19T00:40:46.987Z,0
2022-10-19T00:42:52.903Z,0
2022-10-19T00:43:55.767Z,0
2022-10-19T00:46:01.815Z,0
2022-10-19T00:48:08.210Z,0
2022-10-19T00:49:13.146Z,0
2022-10-19T00:50:16.361Z,0
2022-10-19T00:51:19.240Z,0
2022-10-19T00:53:24.850Z,0
2022-10-19T00:54:27.770Z,0
2022-10-19T00:56:33.589Z,0
2022-10-19T00:58:39.517Z,0
2022-10-19T01:00:45.010Z,0
2022-10-19T01:01:47.845Z,0
2022-10-19T01:03:54.623Z,0
2022-10-19T01:06:02.132Z,0
2022-10-19T01:07:04.565Z,0
2022-10-19T01:08:06.883Z,0
2022-10-19T01:09:10.241Z,0
2022-10-19T01:11:17.168Z,0
2022-10-19T01:12:19.886Z,0
2022-10-19T01:14:26.408Z,0
2022-10-19T01:16:32.338Z,0
2022-10-19T01:17:36.926Z,0
2022-10-19T01:19:42.854Z,0
2022-10-19T01:20:46.887Z,0
2022-10-19T01:22:53.454Z,0
2022-10-19T01:24:58.687Z,0
2022-10-19T01:26:01.756Z,0
2022-10-19T01:28:07.714Z,0
2022-10-19T01:29:10.952Z,0
2022-10-19T01:31:16.536Z,0
2022-10-19T01:33:22.190Z,0
2022-10-19T01:34:24.992Z,0
2022-10-19T01:36:32.474Z,0
2022-10-19T01:37:37.602Z,0
2022-10-19T01:38:40.409Z,0
2022-10-19T01:39:50.987Z,0
2022-10-19T01:41:58.437Z,0
2022-10-19T01:43:01.633Z,0
2022-10-19T01:45:07.489Z,0
2022-10-19T01:47:14.392Z,0
2022-10-19T01:48:17.109Z,0
2022-10-19T01:49:20.186Z,0
2022-10-19T01:50:23.521Z,0
2022-10-19T01:52:30.324Z,0
2022-10-19T01:53:33.760Z,0
2022-10-19T01:55:39.146Z,0
2022-10-19T01:57:44.915Z,0
2022-10-19T01:58:47.499Z,0
2022-10-19T01:59:50.839Z,0
2022-10-19T02:00:54.512Z,0
2022-10-19T02:03:00.415Z,0
2022-10-19T02:04:03.852Z,0
2022-10-19T02:06:09.502Z,0
2022-10-19T02:08:15.637Z,0
2022-10-19T02:10:21.626Z,0
2022-10-19T02:11:24.631Z,0
2022-10-19T02:13:31.467Z,0
2022-10-19T02:15:38.145Z,0
2022-10-19T02:16:41.754Z,0
2022-10-19T02:17:44.467Z,0
2022-10-19T02:18:47.535Z,0
2022-10-19T02:20:52.838Z,0
2022-10-19T02:21:55.915Z,0
2022-10-19T02:22:59.090Z,0
2022-10-19T02:24:02.875Z,0
2022-10-19T02:26:09.690Z,0
2022-10-19T02:27:12.284Z,0
2022-10-19T02:28:16.152Z,0
2022-10-19T02:29:19.641Z,0
2022-10-19T02:31:24.644Z,0
2022-10-19T02:32:27.419Z,0
2022-10-19T02:33:29.759Z,0
2022-10-19T02:34:33.022Z,0
2022-10-19T02:36:39.160Z,0
2022-10-19T02:37:41.832Z,0
2022-10-19T02:38:44.490Z,0
2022-10-19T02:39:48.546Z,0
2022-10-19T02:41:54.811Z,0
2022-10-19T02:42:57.365Z,0
2022-10-19T02:44:00.550Z,0
2022-10-19T02:45:03.060Z,0
2022-10-19T02:47:09.275Z,0
2022-10-19T02:48:11.995Z,0
2022-10-19T02:50:17.949Z,0
2022-10-19T02:52:24.284Z,0
2022-10-19T02:54:30.040Z,0
2022-10-19T02:55:34.487Z,0
2022-10-19T02:57:40.755Z,0
2022-10-19T02:59:46.985Z,0
2022-10-19T03:01:54.567Z,0
2022-10-19T03:02:58.213Z,0
2022-10-19T03:05:04.538Z,0
2022-10-19T03:07:11.204Z,0
2022-10-19T03:09:17.004Z,0
2022-10-19T03:10:20.117Z,0
2022-10-19T03:12:26.703Z,0
2022-10-19T03:14:32.970Z,0
2022-10-19T03:16:39.239Z,0
2022-10-19T03:17:41.742Z,0
2022-10-19T03:19:47.493Z,0
2022-10-19T03:21:52.798Z,0
2022-10-19T03:23:58.957Z,0
2022-10-19T03:25:01.822Z,0
2022-10-19T03:27:15.831Z,0
2022-10-19T03:29:21.685Z,0
2022-10-19T03:31:27.277Z,0
2022-10-19T03:32:29.441Z,0
2022-10-19T03:33:32.107Z,0
2022-10-19T03:34:35.105Z,0
2022-10-19T03:36:41.022Z,0
2022-10-19T03:37:44.473Z,0
2022-10-19T03:38:47.623Z,0
2022-10-19T03:39:51.618Z,0
2022-10-19T03:41:58.469Z,0
2022-10-19T03:44:04.843Z,0
2022-10-19T03:45:07.452Z,0
2022-10-19T03:47:13.470Z,0
2022-10-19T03:49:19.043Z,0
2022-10-19T03:50:21.747Z,0
2022-10-19T03:51:24.241Z,0
2022-10-19T03:52:26.731Z,0
2022-10-19T03:54:36.304Z,0
2022-10-19T03:56:41.411Z,0
2022-10-19T03:57:44.541Z,0
2022-10-19T03:59:50.894Z,0
2022-10-19T04:01:56.777Z,0
2022-10-19T04:04:03.281Z,0
2022-10-19T04:05:06.413Z,0
2022-10-19T04:07:12.659Z,0
2022-10-19T04:09:18.243Z,0
2022-10-19T04:11:24.426Z,0
2022-10-19T04:12:27.767Z,0
2022-10-19T04:14:59.109Z,0
2022-10-19T04:17:04.946Z,0
2022-10-19T04:19:10.833Z,0
2022-10-19T04:21:16.804Z,0
2022-10-19T04:22:19.954Z,0
2022-10-19T04:24:25.676Z,0
2022-10-19T04:26:32.115Z,0
2022-10-19T04:28:40.290Z,0
2022-10-19T04:29:44.130Z,0
2022-10-19T04:30:47.755Z,0
2022-10-19T04:31:50.735Z,0
2022-10-19T04:33:56.597Z,0
2022-10-19T04:34:59.948Z,0
2022-10-19T04:36:03.296Z,0
2022-10-19T04:37:05.727Z,0
2022-10-19T04:39:12.617Z,0
2022-10-19T04:40:17.313Z,0
2022-10-19T04:41:20.771Z,0
2022-10-19T04:42:23.830Z,0
2022-10-19T04:44:28.593Z,0
2022-10-19T04:45:32.363Z,0
2022-10-19T04:46:35.191Z,0
2022-10-19T04:47:39.050Z,0
2022-10-19T04:49:44.042Z,0
2022-10-19T04:50:47.389Z,0
2022-10-19T04:51:50.383Z,0
2022-10-19T04:52:52.814Z,0
2022-10-19T04:54:01.574Z,0
2022-10-19T04:55:04.364Z,0
2022-10-19T04:57:11.831Z,0
2022-10-19T04:58:14.907Z,0
2022-10-19T05:00:21.675Z,0
2022-10-19T05:02:29.246Z,0
2022-10-19T05:03:31.755Z,0
2022-10-19T05:04:34.812Z,0
2022-10-19T05:05:37.797Z,0
2022-10-19T05:07:43.880Z,0
2022-10-19T05:08:46.393Z,0
2022-10-19T05:09:49.772Z,0
2022-10-19T05:10:52.845Z,0
2022-10-19T05:12:59.332Z,0
2022-10-19T05:14:02.151Z,0
2022-10-19T05:15:05.284Z,0
2022-10-19T05:16:08.749Z,0
2022-10-19T05:18:15.649Z,0
2022-10-19T05:20:22.354Z,0
2022-10-19T05:21:25.151Z,0
2022-10-19T05:25:36.311Z,0
2022-10-19T05:27:42.836Z,0
2022-10-19T05:28:46.222Z,0
2022-10-19T05:30:51.649Z,0
2022-10-19T05:32:59.481Z,0
2022-10-19T05:35:06.298Z,0
2022-10-19T05:36:09.452Z,0
2022-10-19T05:38:15.357Z,0
2022-10-19T05:40:21.197Z,1
2022-10-19T05:41:23.910Z,1
2022-10-19T05:43:30.672Z,1
2022-10-19T05:45:36.671Z,1
2022-10-19T05:47:43.077Z,2
2022-10-19T05:48:46.868Z,1
2022-10-19T05:50:53.115Z,1
2022-10-19T05:52:59.158Z,1
2022-10-19T05:55:05.273Z,2
2022-10-19T05:56:08.273Z,2
2022-10-19T05:58:13.690Z,4
2022-10-19T06:00:19.687Z,5
2022-10-19T06:02:25.723Z,6
2022-10-19T06:03:29.202Z,6
2022-10-19T06:05:36.674Z,6
2022-10-19T06:07:43.483Z,6
2022-10-19T06:09:50.328Z,7
2022-10-19T06:10:53.118Z,7
2022-10-19T06:12:59.407Z,8
2022-10-19T06:15:04.396Z,9
2022-10-19T06:16:07.798Z,9
2022-10-19T06:17:10.510Z,10
2022-10-19T06:18:14.156Z,11
2022-10-19T06:20:21.142Z,14
2022-10-19T06:21:24.941Z,15
2022-10-19T06:22:27.748Z,17
2022-10-19T06:23:30.990Z,18
2022-10-19T06:25:37.402Z,21
2022-10-19T06:26:41.102Z,23
2022-10-19T06:27:44.441Z,25
2022-10-19T06:28:47.485Z,26
2022-10-19T06:30:53.671Z,30
2022-10-19T06:31:56.789Z,34
2022-10-19T06:33:01.479Z,37
2022-10-19T06:34:05.096Z,37
2022-10-19T06:36:12.699Z,41
2022-10-19T06:38:18.770Z,43
2022-10-19T06:39:21.474Z,44
2022-10-19T06:41:27.588Z,43
2022-10-19T06:43:34.187Z,43
2022-10-19T06:45:40.685Z,41
2022-10-19T06:46:44.030Z,39
2022-10-19T06:48:54.100Z,42
2022-10-19T06:51:00.719Z,43
2022-10-19T06:53:07.607Z,43
2022-10-19T06:54:10.681Z,45
2022-10-19T06:55:13.577Z,50
2022-10-19T06:56:17.020Z,56
2022-10-19T06:58:23.026Z,67
2022-10-19T06:59:25.642Z,67
2022-10-19T07:00:29.014Z,62
2022-10-19T07:01:32.316Z,64
2022-10-19T07:03:39.185Z,52
2022-10-19T07:04:42.620Z,60
2022-10-19T07:05:45.999Z,52
2022-10-19T07:06:49.336Z,60
2022-10-19T07:08:57.366Z,51
2022-10-19T07:11:03.909Z,55
2022-10-19T07:12:07.171Z,56
2022-10-19T07:14:14.187Z,55
2022-10-19T07:16:23.632Z,63
2022-10-19T07:18:29.594Z,81
2022-10-19T07:19:32.642Z,81
2022-10-19T07:21:38.865Z,84
2022-10-19T07:23:46.426Z,95
2022-10-19T07:25:53.047Z,90
2022-10-19T07:26:56.170Z,91
2022-10-19T07:29:02.316Z,96
2022-10-19T07:31:09.731Z,92
2022-10-19T07:34:18.882Z,80
2022-10-19T07:36:24.458Z,106
2022-10-19T07:38:30.695Z,114
2022-10-19T07:40:37.790Z,438
2022-10-19T07:41:40.883Z,368
2022-10-19T07:43:46.971Z,477
2022-10-19T07:45:53.386Z,153
2022-10-19T07:47:59.328Z,103
2022-10-19T07:49:02.476Z,143
2022-10-19T07:51:09.623Z,104
2022-10-19T07:53:16.275Z,272
2022-10-19T07:55:24.158Z,128
2022-10-19T07:56:27.249Z,491
2022-10-19T07:58:32.449Z,563
2022-10-19T08:00:37.845Z,208
2022-10-19T08:05:06.318Z,473
2022-10-19T08:06:15.664Z,158
2022-10-19T08:08:21.537Z,574
2022-10-19T08:09:56.743Z,603
2022-10-19T08:11:00.312Z,604
2022-10-19T08:12:03.878Z,614
2022-10-19T08:13:07.234Z,655
2022-10-19T08:14:10.232Z,223
2022-10-19T08:16:15.623Z,478
2022-10-19T08:17:19.651Z,669
2022-10-19T08:18:22.855Z,317
2022-10-19T08:19:26.255Z,167
2022-10-19T08:21:32.789Z,324
2022-10-19T08:23:41.283Z,155
2022-10-19T08:24:44.389Z,138
2022-10-19T08:26:51.562Z,102
2022-10-19T08:28:58.556Z,77
2022-10-19T08:31:05.440Z,110
2022-10-19T08:32:08.890Z,109
2022-10-19T08:34:15.122Z,175
2022-10-19T08:36:21.010Z,115
2022-10-19T08:37:49.082Z,107
2022-10-19T08:38:52.524Z,94
2022-10-19T08:39:55.966Z,98
2022-10-19T08:40:59.185Z,90
2022-10-19T08:42:02.967Z,88
2022-10-19T08:44:12.110Z,72
2022-10-19T08:45:15.550Z,78
2022-10-19T08:47:26.063Z,87
2022-10-19T08:49:32.375Z,169
2022-10-19T08:50:35.799Z,299
2022-10-19T08:52:42.618Z,159
2022-10-19T08:54:47.964Z,181
2022-10-19T08:55:51.623Z,795
2022-10-19T08:57:59.233Z,783
2022-10-19T08:59:02.075Z,848
2022-10-19T09:01:08.330Z,854
2022-10-19T09:03:15.612Z,856
2022-10-19T09:04:21.240Z,866
2022-10-19T09:06:28.400Z,927
2022-10-19T09:08:35.645Z,852
2022-10-19T09:09:38.699Z,895
2022-10-19T09:10:41.436Z,891
2022-10-19T09:11:44.429Z,980
2022-10-19T09:12:47.588Z,947
2022-10-19T09:14:08.418Z,797
2022-10-19T09:15:11.537Z,923
2022-10-19T09:17:18.251Z,251
2022-10-19T09:18:21.709Z,465
2022-10-19T09:19:24.133Z,511
2022-10-19T09:20:26.847Z,219
2022-10-19T09:21:49.043Z,1030
2022-10-19T09:22:51.494Z,954
2022-10-19T09:23:54.564Z,980
2022-10-19T09:26:00.614Z,850
2022-10-19T09:28:06.648Z,1002
2022-10-19T09:29:10.779Z,995
2022-10-19T09:31:17.162Z,1024
2022-10-19T09:33:22.906Z,766
2022-10-19T09:34:25.983Z,315
2022-10-19T09:36:52.440Z,212
2022-10-19T09:38:58.352Z,198
2022-10-19T09:41:05.424Z,145
2022-10-19T09:42:08.760Z,926
2022-10-19T09:44:15.921Z,924
2022-10-19T09:46:22.710Z,958
2022-10-19T09:47:25.790Z,972
2022-10-19T09:49:32.270Z,992
2022-10-19T09:51:38.710Z,992
2022-10-19T09:52:41.728Z,1006
2022-10-19T09:54:48.165Z,983
2022-10-19T09:56:53.684Z,961
2022-10-19T09:57:57.136Z,952
2022-10-19T10:00:04.420Z,955
2022-10-19T10:02:11.325Z,980
2022-10-19T10:03:15.433Z,851
2022-10-19T10:05:22.110Z,621
2022-10-19T10:07:27.979Z,1056
2022-10-19T10:08:31.568Z,1099
2022-10-19T10:11:46.446Z,1103
2022-10-19T10:15:09.237Z,1051
2022-10-19T10:17:21.678Z,401
2022-10-19T10:18:25.993Z,470
2022-10-19T10:20:32.353Z,1038
2022-10-19T10:21:35.530Z,1047
2022-10-19T10:23:42.916Z,1055
2022-10-19T10:25:49.109Z,1089
2022-10-19T10:27:55.657Z,1103
2022-10-19T10:29:03.668Z,1129
2022-10-19T10:30:07.409Z,1143
2022-10-19T10:31:11.169Z,1140
2022-10-19T10:33:47.553Z,702
2022-10-19T10:35:02.426Z,1047
2022-10-19T10:36:05.853Z,1016
2022-10-19T10:38:12.656Z,1020
2022-10-19T10:39:15.863Z,1044
2022-10-19T10:40:25.554Z,1072
2022-10-19T10:41:28.710Z,1081
2022-10-19T10:43:35.387Z,1095
2022-10-19T10:44:38.554Z,1102
2022-10-19T10:46:45.319Z,1091
2022-10-19T10:48:55.476Z,1056
2022-10-19T10:51:01.462Z,1045
2022-10-19T10:52:04.462Z,1054
2022-10-19T10:54:11.033Z,1082
2022-10-19T10:56:16.349Z,1095
2022-10-19T10:57:19.802Z,1082
2022-10-19T10:58:31.720Z,1074
2022-10-19T10:59:34.594Z,1064
2022-10-19T11:01:41.539Z,1041
2022-10-19T11:02:45.454Z,1055
2022-10-19T11:03:48.803Z,1050
2022-10-19T11:04:54.577Z,1050
2022-10-19T11:07:00.240Z,1059
2022-10-19T11:08:03.589Z,1059
2022-10-19T11:10:09.923Z,1065
2022-10-19T11:11:12.806Z,1066
2022-10-19T11:13:19.242Z,1075
2022-10-19T11:15:25.591Z,1063
2022-10-19T11:16:29.078Z,1062
2022-10-19T11:18:37.784Z,1051
2022-10-19T11:20:44.238Z,1023
2022-10-19T11:21:47.061Z,1017
2022-10-19T11:23:54.150Z,1005
2022-10-19T11:26:00.649Z,1011
2022-10-19T11:27:04.342Z,1023
2022-10-19T11:29:10.696Z,1033
2022-10-19T11:31:17.872Z,1034
2022-10-19T11:32:21.605Z,1036
2022-10-19T11:34:28.655Z,985
2022-10-19T11:35:32.018Z,960
2022-10-19T11:38:29.996Z,916
2022-10-19T11:39:33.805Z,968
2022-10-19T11:40:36.244Z,992
2022-10-19T11:42:43.228Z,1032
2022-10-19T11:43:46.698Z,1033
2022-10-19T11:45:53.664Z,1008
2022-10-19T11:47:59.819Z,973
2022-10-19T11:49:02.292Z,951
2022-10-19T11:51:24.190Z,958
2022-10-19T11:53:30.448Z,980
2022-10-19T11:54:33.528Z,985
2022-10-19T11:57:12.823Z,982
2022-10-19T11:59:18.695Z,978
2022-10-19T12:00:42.187Z,981
2022-10-19T12:01:46.230Z,980
2022-10-19T12:02:49.630Z,984
2022-10-19T12:04:55.365Z,981
2022-10-19T12:05:59.471Z,954
2022-10-19T12:08:06.594Z,907
2022-10-19T12:09:09.789Z,889
2022-10-19T12:10:12.931Z,891
2022-10-19T12:11:15.433Z,905
2022-10-19T12:12:18.843Z,904
2022-10-19T12:13:22.846Z,892
2022-10-19T12:14:25.632Z,880
2022-10-19T12:16:32.961Z,846
2022-10-19T12:18:41.305Z,881
2022-10-19T12:19:44.485Z,886
2022-10-19T12:21:50.911Z,873
2022-10-19T12:23:57.459Z,797
2022-10-19T12:26:03.958Z,469
2022-10-19T12:27:06.706Z,680
2022-10-19T12:29:12.873Z,372
2022-10-19T12:31:18.890Z,567
2022-10-19T12:32:22.062Z,820
2022-10-19T12:34:28.025Z,472
2022-10-19T12:35:31.105Z,342
2022-10-19T12:37:39.180Z,312
2022-10-19T12:39:01.380Z,205
2022-10-19T12:40:04.394Z,162
2022-10-19T12:42:11.399Z,286
2022-10-19T12:43:15.049Z,312
2022-10-19T12:45:21.395Z,201
2022-10-19T12:46:25.122Z,140
2022-10-19T12:48:30.796Z,211
2022-10-19T12:50:40.274Z,88
2022-10-19T12:51:43.897Z,117
2022-10-19T12:53:50.967Z,302
2022-10-19T12:55:57.277Z,83
2022-10-19T12:58:03.802Z,226
2022-10-19T12:59:06.933Z,103
2022-10-19T13:01:13.591Z,108
2022-10-19T13:02:16.706Z,205
2022-10-19T13:03:19.624Z,78
2022-10-19T13:04:23.385Z,114
2022-10-19T13:06:30.270Z,128
2022-10-19T13:08:39.414Z,207
2022-10-19T13:09:42.959Z,379
2022-10-19T13:10:46.364Z,537
2022-10-19T13:11:50.037Z,429
2022-10-19T13:13:55.927Z,79
2022-10-19T13:16:01.791Z,82
2022-10-19T13:17:04.971Z,85
2022-10-19T13:19:11.463Z,85
2022-10-19T13:20:15.267Z,75
2022-10-19T13:22:21.213Z,85
2022-10-19T13:24:29.009Z,99
2022-10-19T13:25:32.872Z,94
2022-10-19T13:27:41.609Z,71
2022-10-19T13:29:48.912Z,108
2022-10-19T13:31:55.455Z,93
2022-10-19T13:32:58.163Z,88
2022-10-19T13:35:03.678Z,201
2022-10-19T13:37:09.346Z,70
2022-10-19T13:38:12.443Z,83
2022-10-19T13:40:26.837Z,76
2022-10-19T13:41:29.864Z,73
2022-10-19T13:43:37.878Z,227
2022-10-19T13:45:46.044Z,200
2022-10-19T13:46:49.134Z,335
2022-10-19T13:48:55.456Z,212
2022-10-19T13:49:58.533Z,202
2022-10-19T13:52:05.021Z,61
2022-10-19T13:54:11.614Z,92
2022-10-19T13:55:14.500Z,182
2022-10-19T13:57:20.947Z,74
2022-10-19T13:58:23.936Z,74
2022-10-19T14:00:32.754Z,57
2022-10-19T14:01:36.180Z,58
2022-10-19T14:03:42.464Z,57
2022-10-19T14:05:49.308Z,63
2022-10-19T14:06:52.316Z,62
2022-10-19T14:09:00.122Z,55
2022-10-19T14:11:06.587Z,52
2022-10-19T14:12:10.836Z,52
2022-10-19T14:14:16.699Z,51
2022-10-19T14:16:22.569Z,50
2022-10-19T14:18:28.351Z,49
2022-10-19T14:19:31.431Z,49
2022-10-19T14:21:38.230Z,48
2022-10-19T14:23:44.859Z,47
2022-10-19T14:24:48.219Z,46
2022-10-19T14:26:54.199Z,45
2022-10-19T14:29:01.838Z,45
2022-10-19T14:30:05.190Z,44
2022-10-19T14:32:11.582Z,43
2022-10-19T14:34:18.445Z,42
2022-10-19T14:35:21.602Z,42
2022-10-19T14:37:27.077Z,41
2022-10-19T14:39:33.014Z,40
2022-10-19T14:40:36.173Z,40
2022-10-19T14:41:39.813Z,40
2022-10-19T14:42:43.536Z,39
2022-10-19T14:44:50.816Z,38
2022-10-19T14:45:53.953Z,38
2022-10-19T14:47:59.329Z,37
2022-10-19T14:50:05.453Z,36
2022-10-19T14:51:08.441Z,36
2022-10-19T14:52:11.597Z,36
2022-10-19T14:53:14.666Z,35
2022-10-19T14:55:21.044Z,34
2022-10-19T14:56:24.257Z,34
2022-10-19T14:58:30.039Z,33
2022-10-19T15:00:38.289Z,32
2022-10-19T15:01:42.035Z,32
2022-10-19T15:03:48.255Z,31
2022-10-19T15:05:53.898Z,30
2022-10-19T15:06:56.779Z,30
2022-10-19T15:09:03.358Z,29
2022-10-19T15:11:09.614Z,28
2022-10-19T15:12:12.494Z,28
2022-10-19T15:13:15.480Z,27
2022-10-19T15:14:18.927Z,27
2022-10-19T15:15:22.657Z,26
2022-10-19T15:16:25.518Z,26
2022-10-19T15:17:28.951Z,25
2022-10-19T15:18:52.529Z,25
2022-10-19T15:19:55.856Z,24
2022-10-19T15:21:13.802Z,24
2022-10-19T15:22:17.416Z,23
2022-10-19T15:24:23.761Z,22
2022-10-19T15:26:31.855Z,21
2022-10-19T15:27:35.570Z,21
2022-10-19T15:28:43.546Z,20
2022-10-19T15:29:47.089Z,20
2022-10-19T15:31:55.051Z,19
2022-10-19T15:34:01.221Z,18
2022-10-19T15:35:06.680Z,18
2022-10-19T15:37:15.028Z,17
2022-10-19T15:39:47.016Z,16
2022-10-19T15:41:53.114Z,14
2022-10-19T15:43:59.323Z,13
2022-10-19T15:45:02.157Z,13
2022-10-19T15:47:08.639Z,12
2022-10-19T15:49:15.715Z,11
2022-10-19T15:50:18.718Z,10
2022-10-19T15:52:26.680Z,9
2022-10-19T15:54:32.318Z,8
2022-10-19T15:55:35.412Z,8
2022-10-19T15:56:39.156Z,7
2022-10-19T15:57:42.385Z,7
2022-10-19T15:59:48.357Z,6
2022-10-19T16:01:58.609Z,5
2022-10-19T16:03:02.096Z,5
2022-10-19T16:05:08.883Z,4
2022-10-19T16:07:14.227Z,3
2022-10-19T16:09:20.278Z,3
2022-10-19T16:10:23.342Z,2
2022-10-19T16:12:29.826Z,2
2022-10-19T16:14:38.752Z,1
2022-10-19T16:16:44.621Z,1
2022-10-19T16:17:48.451Z,1
2022-10-19T16:19:54.806Z,0
2022-10-19T16:22:01.424Z,0
2022-10-19T16:24:07.176Z,0
2022-10-19T16:25:10.519Z,0
2022-10-19T16:27:16.225Z,0
2022-10-19T16:29:30.707Z,0
2022-10-19T16:31:36.937Z,0
2022-10-19T16:33:44.193Z,0
2022-10-19T16:34:47.632Z,0
2022-10-19T16:36:54.175Z,0
2022-10-19T16:38:59.673Z,0
2022-10-19T16:40:02.733Z,0
2022-10-19T16:41:05.433Z,0
2022-10-19T16:42:08.293Z,0
2022-10-19T16:44:15.176Z,0
2022-10-19T16:45:18.164Z,0
2022-10-19T16:46:21.820Z,0
2022-10-19T16:47:24.632Z,0
2022-10-19T16:49:31.879Z,0
2022-10-19T16:51:38.471Z,0
2022-10-19T16:52:41.656Z,0
2022-10-19T16:54:48.122Z,0
2022-10-19T16:56:53.862Z,0
2022-10-19T16:57:57.213Z,0
2022-10-19T16:59:00.927Z,0
2022-10-19T17:00:04.064Z,0
2022-10-19T17:02:10.622Z,0
2022-10-19T17:04:17.246Z,0
2022-10-19T17:05:21.093Z,0
2022-10-19T17:07:27.118Z,0
2022-10-19T17:09:44.334Z,0
2022-10-19T17:10:48.071Z,0
2022-10-19T17:11:51.221Z,0
2022-10-19T17:12:54.014Z,0
2022-10-19T17:13:57.351Z,0
2022-10-19T17:15:44.754Z,0
2022-10-19T17:16:48.341Z,0
2022-10-19T17:17:51.784Z,0
2022-10-19T17:19:58.071Z,0
2022-10-19T17:22:05.611Z,0
2022-10-19T17:24:20.267Z,0
2022-10-19T17:25:25.829Z,0
2022-10-19T17:26:29.563Z,0
2022-10-19T17:27:32.437Z,0
2022-10-19T17:29:38.925Z,0
2022-10-19T17:30:41.514Z,0
2022-10-19T17:31:44.579Z,0
2022-10-19T17:32:47.950Z,0
2022-10-19T17:34:53.529Z,0
2022-10-19T17:35:57.242Z,0
2022-10-19T17:38:04.235Z,0
2022-10-19T17:40:09.590Z,0
2022-10-19T17:42:15.948Z,0
2022-10-19T17:43:19.365Z,0
2022-10-19T17:45:26.806Z,0
2022-10-19T17:47:35.144Z,0
2022-10-19T17:49:41.813Z,0
2022-10-19T17:50:44.611Z,0
2022-10-19T17:52:51.520Z,0
2022-10-19T17:55:15.838Z,0
2022-10-19T17:56:18.653Z,0
2022-10-19T17:57:22.010Z,0
2022-10-19T17:58:25.441Z,0
2022-10-19T17:59:54.434Z,0
2022-10-19T18:00:57.615Z,0
2022-10-19T18:03:04.233Z,0
2022-10-19T18:05:11.004Z,0
2022-10-19T18:06:14.004Z,0
2022-10-19T18:08:20.760Z,0
2022-10-19T18:10:27.275Z,0
2022-10-19T18:12:33.413Z,0
2022-10-19T18:15:44.037Z,0
2022-10-19T18:17:49.888Z,0
2022-10-19T18:18:52.972Z,0
2022-10-19T18:19:55.787Z,0
2022-10-19T18:20:58.507Z,0
2022-10-19T18:23:04.579Z,0
2022-10-19T18:24:16.588Z,0
2022-10-19T18:25:55.997Z,0
2022-10-19T18:28:01.721Z,0
2022-10-19T18:30:07.405Z,0
2022-10-19T18:31:10.606Z,0
2022-10-19T18:33:16.025Z,0
2022-10-19T18:35:22.501Z,0
2022-10-19T18:36:25.486Z,0
2022-10-19T18:37:28.357Z,0
2022-10-19T18:38:32.095Z,0
2022-10-19T18:40:40.085Z,0
2022-10-19T18:42:46.755Z,0
2022-10-19T18:43:49.837Z,0
2022-10-19T18:45:55.901Z,0
2022-10-19T18:48:02.705Z,0
2022-10-19T18:49:06.057Z,0
2022-10-19T18:50:08.907Z,0
2022-10-19T18:51:11.554Z,0
2022-10-19T18:53:18.812Z,0
2022-10-19T18:54:22.215Z,0
2022-10-19T18:55:26.100Z,0
2022-10-19T18:56:30.115Z,0
2022-10-19T18:58:36.759Z,0
2022-10-19T19:00:47.544Z,0
2022-10-19T19:02:56.022Z,0
2022-10-19T19:03:59.572Z,0
2022-10-19T19:06:05.546Z,0
2022-10-19T19:08:12.073Z,0
2022-10-19T19:10:17.363Z,0
2022-10-19T19:11:20.936Z,0
2022-10-19T19:13:27.246Z,0
2022-10-19T19:15:33.785Z,0
2022-10-19T19:16:36.331Z,0
2022-10-19T19:18:42.310Z,0
2022-10-19T19:20:47.986Z,0
2022-10-19T19:22:53.390Z,0
2022-10-19T19:23:56.550Z,0
2022-10-19T19:26:02.799Z,0
2022-10-19T19:28:09.683Z,0
2022-10-19T19:30:15.664Z,0
2022-10-19T19:31:19.071Z,0
2022-10-19T19:33:24.285Z,0
2022-10-19T19:35:30.311Z,0
2022-10-19T19:37:38.749Z,0
2022-10-19T19:38:41.606Z,0
2022-10-19T19:40:48.392Z,0
2022-10-19T19:42:55.369Z,0
2022-10-19T19:45:01.696Z,0
2022-10-19T19:46:10.899Z,0
2022-10-19T19:47:13.965Z,0
2022-10-19T19:48:17.033Z,0
2022-10-19T19:50:22.927Z,0
2022-10-19T19:52:28.609Z,0
2022-10-19T19:53:31.715Z,0
2022-10-19T19:55:40.624Z,0
2022-10-19T19:57:46.668Z,0
2022-10-19T19:59:53.316Z,0
2022-10-19T20:00:56.426Z,0
2022-10-19T20:03:02.636Z,0
2022-10-19T20:05:09.220Z,0
2022-10-19T20:07:15.470Z,0
2022-10-19T20:08:18.609Z,0
2022-10-19T20:10:24.931Z,0
2022-10-19T20:12:30.523Z,0
2022-10-19T20:13:33.616Z,0
2022-10-19T20:14:37.455Z,0
2022-10-19T20:15:40.897Z,0
2022-10-19T20:17:46.775Z,0
2022-10-19T20:18:49.574Z,0
2022-10-19T20:20:55.804Z,0
2022-10-19T20:23:02.257Z,0
2022-10-19T20:24:04.856Z,0
2022-10-19T20:25:08.191Z,0
2022-10-19T20:26:11.251Z,0
2022-10-19T20:28:16.829Z,0
2022-10-19T20:30:24.434Z,0
2022-10-19T20:33:33.859Z,0
2022-10-19T20:35:39.643Z,0
2022-10-19T20:37:44.750Z,0
2022-10-19T20:38:47.253Z,0
2022-10-19T20:40:53.398Z,0
2022-10-19T20:42:58.973Z,0
2022-10-19T20:45:05.353Z,0
2022-10-19T20:46:09.108Z,0
2022-10-19T20:48:15.538Z,0
2022-10-19T20:50:24.062Z,0
2022-10-19T20:52:39.041Z,0
2022-10-19T20:53:41.813Z,0
2022-10-19T20:55:48.935Z,0
2022-10-19T20:57:55.075Z,0
2022-10-19T20:58:58.569Z,0
2022-10-19T21:01:04.895Z,0
2022-10-19T21:03:11.982Z,0
2022-10-19T21:05:18.963Z,0
2022-10-19T21:06:21.974Z,0
2022-10-19T21:08:29.041Z,0
2022-10-19T21:10:35.288Z,0
2022-10-19T21:12:40.745Z,0
2022-10-19T21:13:44.365Z,0
2022-10-19T21:15:50.217Z,0
2022-10-19T21:17:56.529Z,0
2022-10-19T21:18:59.951Z,0
2022-10-19T21:20:03.398Z,0
2022-10-19T21:21:06.402Z,0
2022-10-19T21:23:12.083Z,0
2022-10-19T21:24:14.527Z,0
2022-10-19T21:25:16.775Z,0
2022-10-19T21:26:19.553Z,0
2022-10-19T21:28:24.968Z,0
2022-10-19T21:30:30.825Z,0
2022-10-19T21:31:33.918Z,0
2022-10-19T21:33:41.047Z,0
2022-10-19T21:35:47.278Z,0
2022-10-19T21:37:54.188Z,0
2022-10-19T21:38:57.265Z,0
2022-10-19T21:41:02.850Z,0
2022-10-19T21:43:09.141Z,0
2022-10-19T21:45:45.026Z,0
2022-10-19T21:47:51.379Z,0
2022-10-19T21:48:55.209Z,0
2022-10-19T21:49:58.356Z,0
2022-10-19T21:51:01.425Z,0
2022-10-19T21:53:08.135Z,0
2022-10-19T21:56:17.937Z,0
2022-10-19T21:58:24.112Z,0
2022-10-19T22:00:31.177Z,0
2022-10-19T22:01:43.527Z,0
2022-10-19T22:02:46.342Z,0
2022-10-19T22:03:49.149Z,0
2022-10-19T22:05:56.293Z,0
2022-10-19T22:06:59.914Z,0
2022-10-19T22:08:03.085Z,0
2022-10-19T22:09:05.875Z,0
2022-10-19T22:11:12.139Z,0
2022-10-19T22:13:18.272Z,0
2022-10-19T22:14:20.870Z,0
2022-10-19T22:16:26.560Z,0
2022-10-19T22:18:32.338Z,0
2022-10-19T22:20:38.383Z,0
2022-10-19T22:21:42.276Z,0
2022-10-19T22:23:48.632Z,0
2022-10-19T22:25:55.072Z,0
2022-10-19T22:28:00.928Z,0
2022-10-19T22:29:03.523Z,0
2022-10-19T22:31:08.561Z,0
2022-10-19T22:33:14.305Z,0
2022-10-19T22:34:16.841Z,0
2022-10-19T22:35:20.214Z,0
2022-10-19T22:36:23.455Z,0
2022-10-19T22:38:28.434Z,0
2022-10-19T22:40:34.760Z,0
2022-10-19T22:41:37.474Z,0
2022-10-19T22:43:44.343Z,0
2022-10-19T22:45:49.963Z,0
2022-10-19T22:47:56.479Z,0
2022-10-19T22:48:59.914Z,0
2022-10-19T22:51:05.997Z,0
2022-10-19T22:53:13.263Z,0
2022-10-19T22:55:18.801Z,0
2022-10-19T22:56:22.169Z,0
2022-10-19T22:58:28.282Z,0
2022-10-19T23:00:33.475Z,0
2022-10-19T23:02:40.477Z,0
2022-10-19T23:03:43.468Z,0
2022-10-19T23:05:49.814Z,0
2022-10-19T23:07:56.873Z,0
2022-10-19T23:10:03.183Z,0
2022-10-19T23:11:06.268Z,0
2022-10-19T23:13:11.966Z,0
2022-10-19T23:15:18.449Z,0
2022-10-19T23:16:36.090Z,0
2022-10-19T23:17:39.979Z,0
2022-10-19T23:18:42.474Z,0
2022-10-19T23:19:45.624Z,0
2022-10-19T23:20:48.217Z,0
2022-10-19T23:22:53.757Z,0
2022-10-19T23:25:01.588Z,0
2022-10-19T23:26:04.859Z,0
2022-10-19T23:27:08.587Z,0
2022-10-19T23:28:12.032Z,0
2022-10-19T23:30:18.285Z,0
2022-10-19T23:32:23.511Z,0
2022-10-19T23:33:26.666Z,0
2022-10-19T23:35:32.626Z,0
2022-10-19T23:37:40.162Z,0
2022-10-19T23:38:42.879Z,0
2022-10-19T23:39:46.754Z,0
2022-10-19T23:40:50.773Z,0